Latest Coastal Weather Observations for Coolangatta

IDQ60701

Issued at 5:12 pm EST Saturday 30 April 2016 (issued every 10 minutes, with the page automatically refreshed every 10 minutes)

About coastal observations | Map of coastal stations | Coastal observations for QLD | Marine services | Other Formats
Station Details ID: 040717 Name: COOLANGATTA Lat: -28.17 Lon: 153.51 Height: 4.0 m
Data from the previous 72 hours. | See also: Recent months at Coolangatta
Date/Time
EST
Temp

°C
Wind Pressure Rain
since 9am
mm
Weather Cloud Vis
km
Sea
Height
m
Swell
Dir
 
Speed
knots
Gust
knots
hPa Trend Height
m
Period
s
Dir
30/05:00pm 23.6 ESE 5 7 1018.9 - 1.4 - Partly cloudy 10 - - - -
30/04:30pm 23.8 ESE 5 6 1018.9 - 1.4 - Partly cloudy 10 - - - -
30/04:00pm 24.4 ESE 7 9 1018.7 - 1.4 - Partly cloudy 10 - - - -
30/03:30pm 25.3 E 6 8 1018.6 - 1.4 - Partly cloudy 10 - - - -
30/03:00pm 25.4 ENE 6 8 1018.7 - 1.4 - - 10 - - - -
30/02:30pm 25.1 NE 7 9 1018.7 - 1.4 - - 10 - - - -
30/02:00pm 25.2 NE 6 8 1018.8 - 1.4 - - 10 - - - -
30/01:57pm 25.1 ENE 6 7 1018.8 - 1.4 - - 10 - - - -
30/01:38pm 25.4 NE 6 8 1018.8 - 1.4 - - 4 - - - -
30/01:30pm 25.2 NNE 5 7 1018.8 - 1.4 - - 10 - - - -
30/01:00pm 25.2 NE 5 9 1019.2 - 1.4 - Partly cloudy 10 - - - -
30/12:30pm 24.9 NNE 4 6 1019.6 - 1.2 - Partly cloudy 10 - - - -
30/12:00pm 24.3 SSW 3 4 1020.1 - 1.2 Drizzle Cloudy 10 - - - -
30/11:31am 23.1 NW 2 5 1020.7 - 1.2 - Partly cloudy 8 - - - -
30/11:30am 23.2 NW 2 5 1020.7 - 1.2 - Partly cloudy 8 - - - -
30/11:00am 23.0 NW 3 5 1021.3 - 0.8 - Partly cloudy 5 - - - -
30/10:58am 23.0 WNW 3 5 1021.3 - 0.8 - Partly cloudy 6 - - - -
30/10:30am 23.1 SW 5 6 1021.5 - 0.4 - Partly cloudy 10 - - - -
30/10:00am 22.6 W 3 5 1022.0 - 0.4 - Partly cloudy 10 - - - -
30/09:58am 22.7 WNW 3 5 1022.0 - 0.4 - Partly cloudy 10 - - - -
30/09:32am 22.6 NNW 4 6 1022.1 - 0.0 - Partly cloudy 6 - - - -
30/09:30am 22.8 NW 3 5 1022.0 - 0.0 - Partly cloudy 8 - - - -
30/09:12am 22.6 NNE 1 4 1022.0 - 0.0 - Partly cloudy 10 - - - -
30/09:01am 22.3 ENE 2 5 1022.1 - 0.0 - Partly cloudy 6 - - - -
30/09:00am 22.4 ENE 2 5 1022.1 - 24.6 Drizzle Cloudy 7 - - - -
30/08:30am 21.5 CALM 0 1 1021.9 - 24.6 - Partly cloudy 10 - - - -
30/08:00am 20.9 SSW 4 5 1021.9 - 24.6 - Cloudy 10 - - - -
30/07:30am 20.4 S 3 4 1021.7 - 24.6 - Cloudy 10 - - - -
30/07:00am 20.1 S 3 3 1021.4 - 24.6 - Cloudy 10 - - - -
30/06:30am 19.6 SSE 3 3 1021.1 - 24.6 - Cloudy 10 - - - -
30/06:00am 19.5 SSE 3 4 1021.0 - 24.6 - Partly cloudy 10 - - - -
30/05:30am 19.5 SSE 3 4 1020.7 - 24.6 - Partly cloudy 10 - - - -
30/05:00am 20.0 WSW 6 8 1020.6 - 24.6 - Partly cloudy 10 - - - -
30/04:30am 19.9 SSW 3 4 1020.3 - 24.4 - Partly cloudy 10 - - - -
30/04:00am 19.8 CALM 0 0 1020.3 - 24.4 - Partly cloudy 10 - - - -
30/03:30am 20.2 CALM 0 0 1020.5 - 24.4 - Partly cloudy 10 - - - -
30/03:00am 20.1 SSW 3 5 1020.5 - 24.4 Rain Cloudy 10 - - - -
30/02:45am 20.1 SW 4 6 1020.5 - 24.4 - Partly cloudy 10 - - - -
30/02:41am 20.1 SW 5 6 1020.5 - 24.4 - Partly cloudy 10 - - - -
30/02:30am 20.2 SW 4 7 1020.6 - 24.4 - Partly cloudy 2 - - - -
30/02:24am 20.2 NNW 4 7 1020.7 - 23.8 - Partly cloudy 2 - - - -
30/02:09am 19.9 WNW 6 8 1020.7 - 18.2 - Partly cloudy 6 - - - -
30/02:00am 20.0 WSW 7 9 1020.7 - 17.0 - Partly cloudy - - - - -
30/01:51am 20.0 WSW 7 9 1020.8 - 17.0 - Partly cloudy 6 - - - -
30/01:30am 19.9 SW 6 8 1021.2 - 16.4 - Partly cloudy 10 - - - -
30/01:00am 20.0 SW 5 6 1021.3 - 16.4 - Partly cloudy 10 - - - -
30/12:43am 20.1 WSW 6 7 1021.5 - 16.4 - Partly cloudy 10 - - - -
30/12:30am 20.2 SW 5 6 1021.7 - 16.2 - Partly cloudy 4 - - - -
30/12:21am 20.2 S 5 7 1021.8 - 15.6 - Partly cloudy 6 - - - -
30/12:00am 20.2 SW 7 8 1021.8 - 15.0 Rain Mostly cloudy 10 - - - -
 
Date/Time
EST
Temp

°C
Wind Pressure Rain
since 9am
mm
Weather Cloud Vis
km
Sea
Height
m
Swell
Dir
 
Speed
knots
Gust
knots
hPa Trend Height
m
Period
s
Dir
29/11:53pm 20.3 WSW 6 8 1021.9 - 15.0 - Partly cloudy 10 - - - -
29/11:47pm 20.3 SW 5 7 1022.0 - 15.0 - Partly cloudy 9 - - - -
29/11:30pm 20.3 W 6 8 1022.3 - 14.8 - Partly cloudy 3 - - - -
29/11:10pm 20.6 - 2 9 1022.8 - 10.2 - Partly cloudy 0.7 - - - -
29/11:00pm 20.8 N 8 13 1022.7 - 2.6 - Partly cloudy 5 - - - -
29/10:30pm 19.9 SW 1 4 1022.7 - 0.0 - - 10 - - - -
29/10:00pm 20.0 WSW 2 4 1022.6 - 0.0 - Partly cloudy 10 - - - -
29/09:30pm 20.1 SSW 1 3 1022.7 - 0.0 - Partly cloudy 10 - - - -
29/09:00pm 20.2 SW 4 6 1022.6 - 0.0 - Partly cloudy 10 - - - -
29/08:30pm 20.3 SW 5 7 1022.6 - 0.0 - Partly cloudy 10 - - - -
29/08:00pm 20.1 SW 4 7 1022.6 - 0.0 - - 10 - - - -
29/07:30pm 20.2 SW 4 6 1022.4 - 0.0 - - 10 - - - -
29/07:00pm 20.5 WSW 5 6 1022.2 - 0.0 - Partly cloudy 10 - - - -
29/06:30pm 20.8 SW 3 5 1021.8 - 0.0 - Partly cloudy 10 - - - -
29/06:00pm 21.8 SE 4 5 1021.6 - 0.0 - - 10 - - - -
29/05:30pm 22.6 ESE 5 6 1021.5 - 0.0 - - 10 - - - -
29/05:00pm 23.2 ESE 5 7 1021.2 - 0.0 - - 10 - - - -
29/04:30pm 24.1 ESE 7 10 1021.0 - 0.0 - Partly cloudy 10 - - - -
29/04:00pm 24.7 ESE 8 11 1020.8 - 0.0 - Partly cloudy 10 - - - -
29/03:30pm 24.8 E 7 11 1020.8 - 0.0 - Partly cloudy 10 - - - -
29/03:00pm 24.6 E 7 10 1020.8 - 0.0 - Partly cloudy 10 - - - -
29/02:30pm 25.5 ESE 8 12 1020.9 - 0.0 - Partly cloudy 10 - - - -
29/02:00pm 25.6 ESE 8 12 1020.9 - 0.0 - Partly cloudy 10 - - - -
29/01:30pm 26.2 E 7 13 1021.2 - 0.0 - Partly cloudy 10 - - - -
29/01:00pm 25.5 E 8 12 1021.3 - 0.0 - Partly cloudy 10 - - - -
29/12:30pm 25.8 E 8 11 1021.7 - 0.0 - Partly cloudy 10 - - - -
29/12:00pm 25.9 E 7 11 1022.2 - 0.0 - Mostly clear 10 - - - -
29/11:30am 25.4 E 7 11 1022.7 - 0.0 - - 10 - - - -
29/11:00am 24.7 SE 7 10 1023.5 - 0.0 - - 10 - - - -
29/10:30am 23.4 SSE 4 6 1023.9 - 0.0 - Partly cloudy 10 - - - -
29/10:00am 23.8 S 8 11 1024.3 - 0.0 - - 10 - - - -
29/09:30am 23.3 S 7 8 1024.3 - 0.0 - - 10 - - - -
29/09:00am 21.9 SSE 5 6 1024.4 - 0.0 - - 10 - - - -
29/08:30am 21.2 SSE 4 4 1024.4 - 0.0 - Partly cloudy 10 - - - -
29/08:00am 20.9 S 3 5 1024.2 - 0.0 - Partly cloudy 10 - - - -
29/07:30am 19.8 SE 4 6 1023.9 - 0.0 - - 10 - - - -
29/07:00am 18.1 SSW 3 5 1023.7 - 0.0 - - 10 - - - -
29/06:30am 17.1 SSW 2 4 1023.5 - 0.0 - - 10 - - - -
29/06:00am 17.4 SE 4 5 1023.2 - 0.0 - - 10 - - - -
29/05:30am 17.5 S 3 5 1022.9 - 0.0 - - 10 - - - -
29/05:00am 17.7 SSW 4 5 1022.7 - 0.0 - - 10 - - - -
29/04:30am 17.6 SSW 4 5 1022.5 - 0.0 - - 10 - - - -
29/04:00am 17.3 S 4 5 1022.3 - 0.0 - Partly cloudy 10 - - - -
29/03:30am 17.8 S 4 5 1022.4 - 0.0 - Partly cloudy 10 - - - -
29/03:00am 17.5 SSE 5 6 1022.7 - 0.0 - Mostly cloudy 10 - - - -
29/02:30am 17.2 SSW 1 4 1022.9 - 0.0 - Partly cloudy 10 - - - -
29/02:00am 17.3 SW 2 3 1022.9 - 0.0 - - 10 - - - -
29/01:30am 17.6 SW 4 5 1023.2 - 0.0 - - 10 - - - -
29/01:00am 17.1 SSW 3 4 1023.3 - 0.0 - - 10 - - - -
29/12:30am 17.6 SSW 3 4 1023.5 - 0.0 - - 10 - - - -
29/12:00am 17.9 S 3 5 1023.6 - 0.0 - - 10 - - - -
 
Date/Time
EST
Temp

°C
Wind Pressure Rain
since 9am
mm
Weather Cloud Vis
km
Sea
Height
m
Swell
Dir
 
Speed
knots
Gust
knots
hPa Trend Height
m
Period
s
Dir
28/11:30pm 18.3 S 3 4 1023.8 - 0.0 - - 10 - - - -
28/11:00pm 18.4 SSW 3 3 1024.1 - 0.0 - - 10 - - - -
28/10:30pm 19.0 SW 3 4 1024.1 - 0.0 - Partly cloudy 10 - - - -
28/10:00pm 19.2 SW 4 5 1024.0 - 0.0 - Partly cloudy 10 - - - -
28/09:30pm 19.6 WSW 4 5 1024.1 - 0.0 - Partly cloudy 10 - - - -
28/09:00pm 19.6 SW 6 7 1024.1 - 0.0 - Mostly cloudy 10 - - - -
28/08:30pm 19.6 SSW 3 5 1024.0 - 0.0 - Partly cloudy 10 - - - -
28/08:00pm 19.4 S 4 5 1023.9 - 0.0 - - 10 - - - -
28/07:30pm 19.4 SW 3 4 1023.7 - 0.0 - - 10 - - - -
28/07:00pm 19.8 WSW 4 5 1023.5 - 0.0 - Partly cloudy 10 - - - -
28/06:30pm 20.1 SSW 3 4 1023.1 - 0.0 - - 10 - - - -
28/06:00pm 20.6 S 3 4 1023.0 - 0.0 - - 10 - - - -
28/05:30pm 21.2 SSE 5 7 1022.8 - 0.0 - - 10 - - - -
28/05:00pm 22.6 ESE 6 7 1022.5 - 0.0 - - 10 - - - -
28/04:30pm 23.7 SE 9 12 1022.4 - 0.0 - Partly cloudy 10 - - - -
28/04:00pm 24.3 SE 8 10 1022.3 - 0.0 - - 10 - - - -
28/03:30pm 24.7 SE 9 11 1022.2 - 0.0 - - 10 - - - -
28/03:00pm 25.1 SE 11 13 1022.2 - 0.0 - - 10 - - - -
28/02:30pm 25.0 SE 10 13 1022.1 - 0.0 - - 10 - - - -
28/02:00pm 24.9 SE 10 13 1022.3 - 0.0 - Partly cloudy 10 - - - -
28/01:30pm 24.4 ESE 8 13 1022.3 - 0.0 - - 10 - - - -
28/01:00pm 24.4 SE 8 12 1022.5 - 0.0 - - 10 - - - -
28/12:51pm 24.0 SSE 7 9 1022.6 - 0.0 - Partly cloudy 10 - - - -
28/12:30pm 23.8 SSE 7 9 1022.8 - 0.0 - Partly cloudy 10 - - - -
28/12:12pm 24.0 SE 10 14 1023.1 - 0.0 - Partly cloudy 10 - - - -
28/12:00pm 24.9 SE 10 12 1023.3 - 0.0 - Mostly cloudy 10 - - - -
28/11:30am 25.3 SE 7 12 1023.4 - 0.0 - Partly cloudy 10 - - - -
28/11:00am 24.6 SSE 6 10 1024.0 - 0.0 - Partly cloudy 10 - - - -
28/10:30am 24.5 SE 6 11 1024.1 - 0.0 - Partly cloudy 10 - - - -
28/10:00am 23.9 SSE 9 11 1024.3 - 0.0 - - 10 - - - -
28/09:30am 23.6 SSE 7 11 1024.4 - 0.0 - - 10 - - - -
28/09:00am 22.8 S 9 13 1024.3 - 1.8 - - 10 - - - -
28/08:30am 22.3 S 7 10 1024.2 - 1.8 - - 10 - - - -
28/08:00am 21.6 SSW 6 8 1024.1 - 1.8 - Partly cloudy 10 - - - -
28/07:30am 19.3 S 6 7 1023.7 - 1.8 - - 10 - - - -
28/07:00am 18.0 SSE 3 5 1023.5 - 1.8 - - 10 - - - -
28/06:30am 17.7 S 3 4 1023.3 - 1.8 - Partly cloudy 10 - - - -
28/06:00am 17.4 S 5 7 1023.1 - 1.8 - - 10 - - - -
28/05:30am 17.6 S 4 6 1022.9 - 1.8 - Partly cloudy 10 - - - -
28/05:00am 18.1 SSE 4 6 1022.9 - 1.8 - Partly cloudy 10 - - - -
28/04:30am 17.8 S 3 5 1022.5 - 1.8 - - 10 - - - -
28/04:00am 17.9 S 5 6 1022.5 - 1.8 - Partly cloudy 10 - - - -
28/03:30am 17.9 S 5 6 1022.5 - 1.8 - Partly cloudy 10 - - - -
28/03:00am 17.9 S 4 5 1022.5 - 1.8 - Partly cloudy 10 - - - -
28/02:30am 17.8 SSW 3 4 1022.7 - 1.8 - Partly cloudy 10 - - - -
28/02:00am 17.9 CALM 0 0 1023.1 - 1.8 - Partly cloudy 10 - - - -
28/01:30am 18.3 SSW 4 5 1023.2 - 1.8 - - 10 - - - -
28/01:00am 18.0 S 5 5 1023.3 - 1.8 - Partly cloudy 10 - - - -
28/12:30am 18.6 SW 4 6 1023.4 - 1.8 - - 10 - - - -
28/12:00am 19.0 SSW 5 7 1023.4 - 1.8 - Mostly clear 10 - - - -
 
Date/Time
EST
Temp

°C
Wind Pressure Rain
since 9am
mm
Weather Cloud Vis
km
Sea
Height
m
Swell
Dir
 
Speed
knots
Gust
knots
hPa Trend Height
m
Period
s
Dir
27/11:30pm 19.1 SW 6 8 1023.5 - 1.8 - Partly cloudy 10 - - - -
27/11:00pm 19.1 SW 7 8 1023.5 - 1.8 - - 10 - - - -
27/10:30pm 18.9 SSW 7 10 1023.7 - 1.8 - Partly cloudy 10 - - - -
27/10:00pm 19.0 SSW 4 6 1023.7 - 1.6 - - 10 - - - -
27/09:30pm 19.4 SW 6 9 1023.8 - 1.6 - Partly cloudy 10 - - - -
27/09:00pm 19.1 SW 5 8 1023.9 - 1.6 - Partly cloudy 10 - - - -
27/08:30pm 18.5 SSW 5 6 1023.9 - 1.6 - - 10 - - - -
27/08:00pm 19.2 S 4 5 1023.7 - 1.6 - Partly cloudy 10 - - - -
27/07:30pm 19.3 SSW 5 6 1023.6 - 1.6 - Partly cloudy 10 - - - -
27/07:00pm 19.3 SSW 4 5 1023.3 - 1.6 - Partly cloudy 10 - - - -
27/06:30pm 19.5 SW 6 7 1023.3 - 1.6 - Partly cloudy 10 - - - -
27/06:00pm 19.5 SW 5 6 1023.1 - 1.6 - Partly cloudy 10 - - - -
27/05:30pm 19.6 SW 5 7 1022.9 - 1.6 - Partly cloudy 10 - - - -

Other Formats:

Comma delimited format used in spreadsheet applications
http://www.bom.gov.au/fwo/IDQ60701/IDQ60701.94592.axf

JavaScript Object Notation format (JSON) in row-major order
http://www.bom.gov.au/fwo/IDQ60701/IDQ60701.94592.json